sensor_id;sensor_type;location;lat;lon;timestamp;P1;durP1;ratioP1;P2;durP2;ratioP2
52866;SDS011;38739;53.324;6.862;2023-05-10T00:01:05;17.20;;;13.50;;
52866;SDS011;38739;53.324;6.862;2023-05-10T00:03:30;19.17;;;14.35;;
52866;SDS011;38739;53.324;6.862;2023-05-10T00:05:56;17.42;;;13.73;;
52866;SDS011;38739;53.324;6.862;2023-05-10T00:08:22;18.25;;;13.20;;
52866;SDS011;38739;53.324;6.862;2023-05-10T00:10:48;18.83;;;14.73;;
52866;SDS011;38739;53.324;6.862;2023-05-10T00:13:14;16.40;;;13.68;;
52866;SDS011;38739;53.324;6.862;2023-05-10T00:15:40;17.35;;;14.20;;
52866;SDS011;38739;53.324;6.862;2023-05-10T00:18:05;17.33;;;13.88;;
52866;SDS011;38739;53.324;6.862;2023-05-10T00:20:31;16.95;;;13.73;;
52866;SDS011;38739;53.324;6.862;2023-05-10T00:22:57;17.48;;;13.63;;
52866;SDS011;38739;53.324;6.862;2023-05-10T00:25:22;16.85;;;13.43;;
52866;SDS011;38739;53.324;6.862;2023-05-10T00:27:48;15.50;;;12.75;;
52866;SDS011;38739;53.324;6.862;2023-05-10T00:30:14;13.27;;;11.98;;
52866;SDS011;38739;53.324;6.862;2023-05-10T00:32:41;12.23;;;11.02;;
52866;SDS011;38739;53.324;6.862;2023-05-10T00:35:08;13.55;;;12.10;;
52866;SDS011;38739;53.324;6.862;2023-05-10T00:37:34;13.45;;;12.15;;
52866;SDS011;38739;53.324;6.862;2023-05-10T00:40:00;13.95;;;12.55;;
52866;SDS011;38739;53.324;6.862;2023-05-10T00:42:26;14.25;;;12.85;;
52866;SDS011;38739;53.324;6.862;2023-05-10T00:44:51;12.80;;;11.50;;
52866;SDS011;38739;53.324;6.862;2023-05-10T00:47:17;13.10;;;11.65;;
52866;SDS011;38739;53.324;6.862;2023-05-10T00:49:43;13.38;;;11.98;;
52866;SDS011;38739;53.324;6.862;2023-05-10T00:52:09;12.73;;;11.45;;
52866;SDS011;38739;53.324;6.862;2023-05-10T00:54:35;14.38;;;11.95;;
52866;SDS011;38739;53.324;6.862;2023-05-10T00:57:02;13.20;;;11.80;;
52866;SDS011;38739;53.324;6.862;2023-05-10T00:59:28;13.18;;;11.77;;
52866;SDS011;38739;53.324;6.862;2023-05-10T01:01:54;12.55;;;11.25;;
52866;SDS011;38739;53.324;6.862;2023-05-10T01:04:20;12.65;;;11.30;;
52866;SDS011;38739;53.324;6.862;2023-05-10T01:06:51;12.45;;;11.15;;
52866;SDS011;38739;53.324;6.862;2023-05-10T01:09:18;11.82;;;10.63;;
52866;SDS011;38739;53.324;6.862;2023-05-10T01:11:45;12.13;;;10.40;;
52866;SDS011;38739;53.324;6.862;2023-05-10T01:14:11;11.50;;;10.30;;
52866;SDS011;38739;53.324;6.862;2023-05-10T01:16:38;12.93;;;10.98;;
52866;SDS011;38739;53.324;6.862;2023-05-10T01:19:24;13.02;;;11.63;;
52866;SDS011;38739;53.324;6.862;2023-05-10T01:27:54;16.25;;;12.93;;
52866;SDS011;38739;53.324;6.862;2023-05-10T01:38:47;14.15;;;11.45;;
52866;SDS011;38739;53.324;6.862;2023-05-10T01:43:54;14.98;;;12.43;;
52866;SDS011;38739;53.324;6.862;2023-05-10T01:46:42;15.02;;;11.65;;
52866;SDS011;38739;53.324;6.862;2023-05-10T01:49:21;13.18;;;11.10;;
52866;SDS011;38739;53.324;6.862;2023-05-10T01:51:51;14.75;;;11.68;;
52866;SDS011;38739;53.324;6.862;2023-05-10T01:54:22;13.88;;;12.07;;
52866;SDS011;38739;53.324;6.862;2023-05-10T01:56:52;17.13;;;12.85;;
52866;SDS011;38739;53.324;6.862;2023-05-10T01:59:24;14.73;;;11.80;;
52866;SDS011;38739;53.324;6.862;2023-05-10T02:01:54;13.82;;;10.90;;
52866;SDS011;38739;53.324;6.862;2023-05-10T02:04:23;12.95;;;11.20;;
52866;SDS011;38739;53.324;6.862;2023-05-10T02:06:50;12.43;;;11.13;;
52866;SDS011;38739;53.324;6.862;2023-05-10T02:09:18;13.32;;;11.27;;
52866;SDS011;38739;53.324;6.862;2023-05-10T02:11:45;13.70;;;10.85;;
52866;SDS011;38739;53.324;6.862;2023-05-10T02:14:15;12.57;;;11.00;;
52866;SDS011;38739;53.324;6.862;2023-05-10T02:16:41;13.50;;;10.65;;
52866;SDS011;38739;53.324;6.862;2023-05-10T02:19:09;13.55;;;10.80;;
52866;SDS011;38739;53.324;6.862;2023-05-10T02:21:37;12.20;;;10.15;;
52866;SDS011;38739;53.324;6.862;2023-05-10T02:24:05;12.20;;;10.18;;
52866;SDS011;38739;53.324;6.862;2023-05-10T02:26:34;13.48;;;10.43;;
52866;SDS011;38739;53.324;6.862;2023-05-10T02:29:01;11.93;;;10.27;;
52866;SDS011;38739;53.324;6.862;2023-05-10T02:31:29;12.27;;;10.23;;
52866;SDS011;38739;53.324;6.862;2023-05-10T02:33:57;11.48;;;10.10;;
52866;SDS011;38739;53.324;6.862;2023-05-10T02:36:23;12.88;;;10.63;;
52866;SDS011;38739;53.324;6.862;2023-05-10T02:38:52;11.38;;;10.18;;
52866;SDS011;38739;53.324;6.862;2023-05-10T02:41:19;10.65;;;9.40;;
52866;SDS011;38739;53.324;6.862;2023-05-10T02:43:49;14.00;;;10.85;;
52866;SDS011;38739;53.324;6.862;2023-05-10T02:46:17;14.75;;;11.90;;
52866;SDS011;38739;53.324;6.862;2023-05-10T02:48:43;11.50;;;10.05;;
52866;SDS011;38739;53.324;6.862;2023-05-10T02:51:09;13.43;;;11.05;;
52866;SDS011;38739;53.324;6.862;2023-05-10T02:53:38;12.68;;;10.30;;
52866;SDS011;38739;53.324;6.862;2023-05-10T02:56:11;14.18;;;11.60;;
52866;SDS011;38739;53.324;6.862;2023-05-10T02:58:48;14.00;;;10.85;;
52866;SDS011;38739;53.324;6.862;2023-05-10T03:01:14;12.13;;;10.35;;
52866;SDS011;38739;53.324;6.862;2023-05-10T03:03:40;13.45;;;10.75;;
52866;SDS011;38739;53.324;6.862;2023-05-10T03:06:06;13.10;;;11.20;;
52866;SDS011;38739;53.324;6.862;2023-05-10T03:08:32;11.70;;;10.32;;
52866;SDS011;38739;53.324;6.862;2023-05-10T03:11:16;14.57;;;11.80;;
52866;SDS011;38739;53.324;6.862;2023-05-10T03:16:41;12.55;;;10.38;;
52866;SDS011;38739;53.324;6.862;2023-05-10T03:19:15;13.32;;;11.38;;
52866;SDS011;38739;53.324;6.862;2023-05-10T03:21:52;12.45;;;10.85;;
52866;SDS011;38739;53.324;6.862;2023-05-10T03:24:21;12.32;;;10.45;;
52866;SDS011;38739;53.324;6.862;2023-05-10T03:26:52;13.13;;;11.15;;
52866;SDS011;38739;53.324;6.862;2023-05-10T03:29:20;14.38;;;11.05;;
52866;SDS011;38739;53.324;6.862;2023-05-10T03:31:47;13.20;;;11.43;;
52866;SDS011;38739;53.324;6.862;2023-05-10T03:34:13;12.93;;;10.63;;
52866;SDS011;38739;53.324;6.862;2023-05-10T03:36:39;12.68;;;10.93;;
52866;SDS011;38739;53.324;6.862;2023-05-10T03:39:04;12.48;;;10.95;;
52866;SDS011;38739;53.324;6.862;2023-05-10T03:41:30;14.45;;;10.82;;
52866;SDS011;38739;53.324;6.862;2023-05-10T03:43:56;12.25;;;10.63;;
52866;SDS011;38739;53.324;6.862;2023-05-10T03:46:21;11.57;;;10.30;;
52866;SDS011;38739;53.324;6.862;2023-05-10T03:48:47;12.90;;;10.82;;
52866;SDS011;38739;53.324;6.862;2023-05-10T03:51:13;14.00;;;11.85;;
52866;SDS011;38739;53.324;6.862;2023-05-10T03:53:38;13.13;;;11.50;;
52866;SDS011;38739;53.324;6.862;2023-05-10T03:56:04;14.52;;;11.82;;
52866;SDS011;38739;53.324;6.862;2023-05-10T03:58:30;15.25;;;12.13;;
52866;SDS011;38739;53.324;6.862;2023-05-10T04:00:55;15.60;;;12.50;;
52866;SDS011;38739;53.324;6.862;2023-05-10T04:03:21;17.15;;;12.27;;
52866;SDS011;38739;53.324;6.862;2023-05-10T04:05:47;16.75;;;12.75;;
52866;SDS011;38739;53.324;6.862;2023-05-10T04:08:12;18.30;;;13.10;;
52866;SDS011;38739;53.324;6.862;2023-05-10T04:10:39;16.77;;;12.85;;
52866;SDS011;38739;53.324;6.862;2023-05-10T04:13:05;17.00;;;13.05;;
52866;SDS011;38739;53.324;6.862;2023-05-10T04:15:31;16.83;;;13.23;;
52866;SDS011;38739;53.324;6.862;2023-05-10T04:17:56;20.20;;;13.95;;
52866;SDS011;38739;53.324;6.862;2023-05-10T04:20:22;17.75;;;13.20;;
52866;SDS011;38739;53.324;6.862;2023-05-10T04:22:48;17.88;;;13.50;;
52866;SDS011;38739;53.324;6.862;2023-05-10T04:25:13;19.85;;;12.90;;
52866;SDS011;38739;53.324;6.862;2023-05-10T04:27:39;20.13;;;13.32;;
52866;SDS011;38739;53.324;6.862;2023-05-10T04:30:05;20.05;;;14.13;;
52866;SDS011;38739;53.324;6.862;2023-05-10T04:32:31;21.33;;;14.55;;
52866;SDS011;38739;53.324;6.862;2023-05-10T04:34:57;22.92;;;14.13;;
52866;SDS011;38739;53.324;6.862;2023-05-10T04:37:23;21.67;;;13.68;;
52866;SDS011;38739;53.324;6.862;2023-05-10T04:39:48;22.55;;;14.07;;
52866;SDS011;38739;53.324;6.862;2023-05-10T04:42:15;20.83;;;14.40;;
52866;SDS011;38739;53.324;6.862;2023-05-10T04:44:41;21.83;;;14.23;;
52866;SDS011;38739;53.324;6.862;2023-05-10T04:47:06;18.75;;;13.93;;
52866;SDS011;38739;53.324;6.862;2023-05-10T04:49:32;21.85;;;14.68;;
52866;SDS011;38739;53.324;6.862;2023-05-10T04:51:58;18.50;;;13.25;;
52866;SDS011;38739;53.324;6.862;2023-05-10T04:54:23;22.10;;;13.90;;
52866;SDS011;38739;53.324;6.862;2023-05-10T04:56:49;21.08;;;13.65;;
52866;SDS011;38739;53.324;6.862;2023-05-10T04:59:15;21.70;;;13.70;;
52866;SDS011;38739;53.324;6.862;2023-05-10T05:01:40;22.55;;;13.88;;
52866;SDS011;38739;53.324;6.862;2023-05-10T05:04:06;18.92;;;12.23;;
52866;SDS011;38739;53.324;6.862;2023-05-10T05:06:32;15.80;;;11.48;;
52866;SDS011;38739;53.324;6.862;2023-05-10T05:08:57;15.98;;;12.02;;
52866;SDS011;38739;53.324;6.862;2023-05-10T05:11:23;17.40;;;11.48;;
52866;SDS011;38739;53.324;6.862;2023-05-10T05:13:50;18.35;;;11.27;;
52866;SDS011;38739;53.324;6.862;2023-05-10T05:16:16;16.95;;;11.60;;
52866;SDS011;38739;53.324;6.862;2023-05-10T05:18:41;15.00;;;11.88;;
52866;SDS011;38739;53.324;6.862;2023-05-10T05:21:17;16.92;;;11.02;;
52866;SDS011;38739;53.324;6.862;2023-05-10T05:23:44;15.30;;;11.18;;
52866;SDS011;38739;53.324;6.862;2023-05-10T05:26:09;14.00;;;10.98;;
52866;SDS011;38739;53.324;6.862;2023-05-10T05:28:35;15.82;;;11.55;;
52866;SDS011;38739;53.324;6.862;2023-05-10T05:31:05;10.70;;;9.60;;
52866;SDS011;38739;53.324;6.862;2023-05-10T05:33:31;11.43;;;10.20;;
52866;SDS011;38739;53.324;6.862;2023-05-10T05:35:57;12.00;;;9.65;;
52866;SDS011;38739;53.324;6.862;2023-05-10T05:38:25;14.80;;;10.32;;
52866;SDS011;38739;53.324;6.862;2023-05-10T05:40:51;12.18;;;10.15;;
52866;SDS011;38739;53.324;6.862;2023-05-10T05:43:16;11.23;;;10.02;;
52866;SDS011;38739;53.324;6.862;2023-05-10T05:45:42;13.40;;;9.50;;
52866;SDS011;38739;53.324;6.862;2023-05-10T05:48:08;12.45;;;10.05;;
52866;SDS011;38739;53.324;6.862;2023-05-10T05:50:33;12.30;;;9.13;;
52866;SDS011;38739;53.324;6.862;2023-05-10T05:52:59;9.27;;;8.27;;
52866;SDS011;38739;53.324;6.862;2023-05-10T05:55:25;11.85;;;9.18;;
52866;SDS011;38739;53.324;6.862;2023-05-10T05:57:51;10.45;;;8.00;;
52866;SDS011;38739;53.324;6.862;2023-05-10T06:00:16;11.43;;;8.18;;
52866;SDS011;38739;53.324;6.862;2023-05-10T06:02:43;10.57;;;7.68;;
52866;SDS011;38739;53.324;6.862;2023-05-10T06:05:08;8.82;;;7.60;;
52866;SDS011;38739;53.324;6.862;2023-05-10T06:07:34;9.00;;;7.10;;
52866;SDS011;38739;53.324;6.862;2023-05-10T06:10:00;8.88;;;7.00;;
52866;SDS011;38739;53.324;6.862;2023-05-10T06:12:26;7.60;;;6.57;;
52866;SDS011;38739;53.324;6.862;2023-05-10T06:14:51;7.57;;;6.78;;
52866;SDS011;38739;53.324;6.862;2023-05-10T06:17:17;9.50;;;6.70;;
52866;SDS011;38739;53.324;6.862;2023-05-10T06:19:43;7.43;;;6.30;;
52866;SDS011;38739;53.324;6.862;2023-05-10T06:22:08;6.55;;;5.57;;
52866;SDS011;38739;53.324;6.862;2023-05-10T06:24:34;5.85;;;5.25;;
52866;SDS011;38739;53.324;6.862;2023-05-10T06:27:00;6.15;;;5.38;;
52866;SDS011;38739;53.324;6.862;2023-05-10T06:29:26;5.57;;;5.00;;
52866;SDS011;38739;53.324;6.862;2023-05-10T06:31:51;4.28;;;3.88;;
52866;SDS011;38739;53.324;6.862;2023-05-10T06:34:17;2.63;;;2.42;;
52866;SDS011;38739;53.324;6.862;2023-05-10T06:36:43;2.90;;;2.40;;
52866;SDS011;38739;53.324;6.862;2023-05-10T06:39:09;2.55;;;2.03;;
52866;SDS011;38739;53.324;6.862;2023-05-10T06:41:36;1.60;;;1.50;;
52866;SDS011;38739;53.324;6.862;2023-05-10T06:44:02;1.52;;;1.40;;
52866;SDS011;38739;53.324;6.862;2023-05-10T06:46:28;0.95;;;0.88;;
52866;SDS011;38739;53.324;6.862;2023-05-10T06:48:54;0.85;;;0.52;;
52866;SDS011;38739;53.324;6.862;2023-05-10T06:51:20;0.40;;;0.40;;
52866;SDS011;38739;53.324;6.862;2023-05-10T06:53:46;2.15;;;0.68;;
52866;SDS011;38739;53.324;6.862;2023-05-10T06:56:12;0.60;;;0.60;;
52866;SDS011;38739;53.324;6.862;2023-05-10T06:58:38;0.60;;;0.60;;
52866;SDS011;38739;53.324;6.862;2023-05-10T07:01:06;0.70;;;0.70;;
52866;SDS011;38739;53.324;6.862;2023-05-10T07:03:32;1.10;;;1.00;;
52866;SDS011;38739;53.324;6.862;2023-05-10T07:06:04;2.75;;;1.50;;
52866;SDS011;38739;53.324;6.862;2023-05-10T07:08:31;1.70;;;1.50;;
52866;SDS011;38739;53.324;6.862;2023-05-10T07:11:02;3.00;;;1.83;;
52866;SDS011;38739;53.324;6.862;2023-05-10T07:13:29;2.50;;;1.80;;
52866;SDS011;38739;53.324;6.862;2023-05-10T07:15:56;5.95;;;2.13;;
52866;SDS011;38739;53.324;6.862;2023-05-10T07:18:22;4.07;;;2.13;;
52866;SDS011;38739;53.324;6.862;2023-05-10T07:20:47;4.20;;;2.00;;
52866;SDS011;38739;53.324;6.862;2023-05-10T07:23:13;3.47;;;2.17;;
52866;SDS011;38739;53.324;6.862;2023-05-10T07:25:38;3.58;;;2.75;;
52866;SDS011;38739;53.324;6.862;2023-05-10T07:28:05;4.03;;;3.38;;
52866;SDS011;38739;53.324;6.862;2023-05-10T07:30:30;4.65;;;3.85;;
52866;SDS011;38739;53.324;6.862;2023-05-10T07:32:56;5.65;;;4.28;;
52866;SDS011;38739;53.324;6.862;2023-05-10T07:35:22;4.93;;;4.43;;
52866;SDS011;38739;53.324;6.862;2023-05-10T07:37:47;5.28;;;4.45;;
52866;SDS011;38739;53.324;6.862;2023-05-10T07:40:13;6.30;;;5.70;;
52866;SDS011;38739;53.324;6.862;2023-05-10T07:42:39;7.22;;;6.60;;
52866;SDS011;38739;53.324;6.862;2023-05-10T07:45:05;7.10;;;6.50;;
52866;SDS011;38739;53.324;6.862;2023-05-10T07:47:31;13.82;;;8.20;;
52866;SDS011;38739;53.324;6.862;2023-05-10T07:49:57;10.48;;;9.38;;
52866;SDS011;38739;53.324;6.862;2023-05-10T07:52:22;10.70;;;9.60;;
52866;SDS011;38739;53.324;6.862;2023-05-10T07:54:48;11.50;;;9.98;;
52866;SDS011;38739;53.324;6.862;2023-05-10T07:57:14;11.85;;;10.70;;
52866;SDS011;38739;53.324;6.862;2023-05-10T07:59:42;14.38;;;11.20;;
52866;SDS011;38739;53.324;6.862;2023-05-10T08:02:09;12.80;;;11.48;;
52866;SDS011;38739;53.324;6.862;2023-05-10T08:04:35;13.38;;;11.63;;
52866;SDS011;38739;53.324;6.862;2023-05-10T08:07:00;13.32;;;11.88;;
52866;SDS011;38739;53.324;6.862;2023-05-10T08:09:26;15.70;;;13.25;;
52866;SDS011;38739;53.324;6.862;2023-05-10T08:11:52;16.27;;;13.50;;
52866;SDS011;38739;53.324;6.862;2023-05-10T08:14:17;16.33;;;14.32;;
52866;SDS011;38739;53.324;6.862;2023-05-10T08:16:43;18.08;;;15.05;;
52866;SDS011;38739;53.324;6.862;2023-05-10T08:19:09;16.60;;;14.75;;
52866;SDS011;38739;53.324;6.862;2023-05-10T08:21:34;15.32;;;13.68;;
52866;SDS011;38739;53.324;6.862;2023-05-10T08:24:01;14.75;;;13.25;;
52866;SDS011;38739;53.324;6.862;2023-05-10T08:26:27;15.52;;;13.35;;
52866;SDS011;38739;53.324;6.862;2023-05-10T08:28:52;15.00;;;13.43;;
52866;SDS011;38739;53.324;6.862;2023-05-10T08:31:18;14.55;;;12.15;;
52866;SDS011;38739;53.324;6.862;2023-05-10T08:33:44;12.88;;;11.57;;
52866;SDS011;38739;53.324;6.862;2023-05-10T08:36:10;10.63;;;9.52;;
52866;SDS011;38739;53.324;6.862;2023-05-10T08:38:37;9.63;;;8.65;;
52866;SDS011;38739;53.324;6.862;2023-05-10T08:41:02;9.40;;;8.50;;
52866;SDS011;38739;53.324;6.862;2023-05-10T08:43:30;9.38;;;8.27;;
52866;SDS011;38739;53.324;6.862;2023-05-10T08:45:56;8.35;;;7.55;;
52866;SDS011;38739;53.324;6.862;2023-05-10T08:48:26;6.40;;;5.80;;
52866;SDS011;38739;53.324;6.862;2023-05-10T08:50:54;6.95;;;6.25;;
52866;SDS011;38739;53.324;6.862;2023-05-10T08:53:24;7.65;;;6.93;;
52866;SDS011;38739;53.324;6.862;2023-05-10T08:55:52;9.20;;;7.53;;
52866;SDS011;38739;53.324;6.862;2023-05-10T08:58:19;8.55;;;7.65;;
52866;SDS011;38739;53.324;6.862;2023-05-10T09:00:45;9.00;;;6.82;;
52866;SDS011;38739;53.324;6.862;2023-05-10T09:03:12;7.13;;;6.40;;
52866;SDS011;38739;53.324;6.862;2023-05-10T09:05:38;9.32;;;6.68;;
52866;SDS011;38739;53.324;6.862;2023-05-10T09:08:04;6.53;;;5.80;;
52866;SDS011;38739;53.324;6.862;2023-05-10T09:10:31;7.75;;;5.22;;
52866;SDS011;38739;53.324;6.862;2023-05-10T09:12:57;5.40;;;4.90;;
52866;SDS011;38739;53.324;6.862;2023-05-10T09:15:23;4.88;;;4.47;;
52866;SDS011;38739;53.324;6.862;2023-05-10T09:17:49;4.85;;;4.35;;
52866;SDS011;38739;53.324;6.862;2023-05-10T09:20:15;5.50;;;4.90;;
52866;SDS011;38739;53.324;6.862;2023-05-10T09:22:42;6.97;;;4.43;;
52866;SDS011;38739;53.324;6.862;2023-05-10T09:25:09;5.50;;;4.45;;
52866;SDS011;38739;53.324;6.862;2023-05-10T09:27:37;4.47;;;4.07;;
52866;SDS011;38739;53.324;6.862;2023-05-10T09:30:05;4.32;;;3.78;;
52866;SDS011;38739;53.324;6.862;2023-05-10T09:32:44;4.65;;;4.07;;
52866;SDS011;38739;53.324;6.862;2023-05-10T09:35:14;4.65;;;4.13;;
52866;SDS011;38739;53.324;6.862;2023-05-10T09:37:45;5.47;;;3.83;;
52866;SDS011;38739;53.324;6.862;2023-05-10T09:40:13;4.53;;;3.60;;
52866;SDS011;38739;53.324;6.862;2023-05-10T09:45:36;4.97;;;3.70;;
52866;SDS011;38739;53.324;6.862;2023-05-10T09:48:02;4.53;;;3.20;;
52866;SDS011;38739;53.324;6.862;2023-05-10T09:50:29;3.60;;;2.80;;
52866;SDS011;38739;53.324;6.862;2023-05-10T09:52:56;3.88;;;3.17;;
52866;SDS011;38739;53.324;6.862;2023-05-10T09:55:24;3.85;;;3.42;;
52866;SDS011;38739;53.324;6.862;2023-05-10T09:58:05;4.85;;;4.30;;
52866;SDS011;38739;53.324;6.862;2023-05-10T10:00:42;5.63;;;4.60;;
52866;SDS011;38739;53.324;6.862;2023-05-10T10:03:13;5.80;;;4.10;;
52866;SDS011;38739;53.324;6.862;2023-05-10T10:05:42;4.43;;;3.72;;
52866;SDS011;38739;53.324;6.862;2023-05-10T10:08:09;4.90;;;3.83;;
52866;SDS011;38739;53.324;6.862;2023-05-10T10:10:35;4.57;;;3.75;;
52866;SDS011;38739;53.324;6.862;2023-05-10T10:13:01;9.52;;;3.80;;
52866;SDS011;38739;53.324;6.862;2023-05-10T10:15:27;4.18;;;3.20;;
52866;SDS011;38739;53.324;6.862;2023-05-10T10:17:53;4.25;;;3.30;;
52866;SDS011;38739;53.324;6.862;2023-05-10T10:20:20;4.25;;;3.50;;
52866;SDS011;38739;53.324;6.862;2023-05-10T10:22:47;4.45;;;3.10;;
52866;SDS011;38739;53.324;6.862;2023-05-10T10:25:15;3.72;;;3.00;;
52866;SDS011;38739;53.324;6.862;2023-05-10T10:33:13;5.72;;;3.67;;
52866;SDS011;38739;53.324;6.862;2023-05-10T10:36:02;4.20;;;3.80;;
52866;SDS011;38739;53.324;6.862;2023-05-10T10:41:27;6.70;;;4.13;;
52866;SDS011;38739;53.324;6.862;2023-05-10T10:58:12;4.65;;;2.92;;
52866;SDS011;38739;53.324;6.862;2023-05-10T11:00:29;4.45;;;3.25;;
52866;SDS011;38739;53.324;6.862;2023-05-10T11:03:05;3.42;;;3.13;;
52866;SDS011;38739;53.324;6.862;2023-05-10T11:05:37;3.55;;;3.20;;
52866;SDS011;38739;53.324;6.862;2023-05-10T11:10:49;3.80;;;3.05;;
52866;SDS011;38739;53.324;6.862;2023-05-10T11:13:43;4.65;;;3.25;;
52866;SDS011;38739;53.324;6.862;2023-05-10T11:19:01;3.08;;;2.78;;
52866;SDS011;38739;53.324;6.862;2023-05-10T11:21:33;3.85;;;2.80;;
52866;SDS011;38739;53.324;6.862;2023-05-10T11:24:00;3.78;;;3.17;;
52866;SDS011;38739;53.324;6.862;2023-05-10T11:26:31;2.70;;;2.15;;
52866;SDS011;38739;53.324;6.862;2023-05-10T11:28:59;4.03;;;2.63;;
52866;SDS011;38739;53.324;6.862;2023-05-10T11:31:27;3.13;;;1.85;;
52866;SDS011;38739;53.324;6.862;2023-05-10T11:33:54;2.40;;;1.75;;
52866;SDS011;38739;53.324;6.862;2023-05-10T11:36:23;2.30;;;2.00;;
52866;SDS011;38739;53.324;6.862;2023-05-10T11:38:51;4.10;;;2.40;;
52866;SDS011;38739;53.324;6.862;2023-05-10T11:41:17;5.90;;;4.72;;
52866;SDS011;38739;53.324;6.862;2023-05-10T11:43:47;5.50;;;3.78;;
52866;SDS011;38739;53.324;6.862;2023-05-10T11:46:15;6.03;;;4.68;;
52866;SDS011;38739;53.324;6.862;2023-05-10T11:48:42;7.57;;;5.13;;
52866;SDS011;38739;53.324;6.862;2023-05-10T11:51:08;6.35;;;5.13;;
52866;SDS011;38739;53.324;6.862;2023-05-10T11:53:35;6.43;;;5.45;;
52866;SDS011;38739;53.324;6.862;2023-05-10T11:56:07;7.32;;;5.00;;
52866;SDS011;38739;53.324;6.862;2023-05-10T11:58:34;5.68;;;4.30;;
52866;SDS011;38739;53.324;6.862;2023-05-10T12:01:00;7.32;;;4.70;;
52866;SDS011;38739;53.324;6.862;2023-05-10T12:03:27;6.82;;;4.30;;
52866;SDS011;38739;53.324;6.862;2023-05-10T12:05:53;5.82;;;4.35;;
52866;SDS011;38739;53.324;6.862;2023-05-10T12:08:23;6.45;;;4.70;;
52866;SDS011;38739;53.324;6.862;2023-05-10T12:10:51;7.95;;;5.28;;
52866;SDS011;38739;53.324;6.862;2023-05-10T12:13:19;6.95;;;4.90;;
52866;SDS011;38739;53.324;6.862;2023-05-10T12:15:46;8.32;;;5.28;;
52866;SDS011;38739;53.324;6.862;2023-05-10T12:18:12;8.13;;;5.75;;
52866;SDS011;38739;53.324;6.862;2023-05-10T12:20:39;8.43;;;6.60;;
52866;SDS011;38739;53.324;6.862;2023-05-10T12:23:05;8.63;;;6.53;;
52866;SDS011;38739;53.324;6.862;2023-05-10T12:25:33;8.05;;;6.60;;
52866;SDS011;38739;53.324;6.862;2023-05-10T12:28:04;9.55;;;6.32;;
52866;SDS011;38739;53.324;6.862;2023-05-10T12:30:32;9.40;;;6.68;;
52866;SDS011;38739;53.324;6.862;2023-05-10T12:33:00;9.15;;;6.55;;
52866;SDS011;38739;53.324;6.862;2023-05-10T12:35:33;10.77;;;7.65;;
52866;SDS011;38739;53.324;6.862;2023-05-10T12:38:27;11.32;;;7.32;;
52866;SDS011;38739;53.324;6.862;2023-05-10T12:41:08;8.23;;;5.80;;
52866;SDS011;38739;53.324;6.862;2023-05-10T12:43:35;8.23;;;5.97;;
52866;SDS011;38739;53.324;6.862;2023-05-10T12:46:11;7.28;;;6.00;;
52866;SDS011;38739;53.324;6.862;2023-05-10T12:48:42;7.72;;;5.78;;
52866;SDS011;38739;53.324;6.862;2023-05-10T12:51:09;9.82;;;6.70;;
52866;SDS011;38739;53.324;6.862;2023-05-10T12:53:37;7.20;;;5.90;;
52866;SDS011;38739;53.324;6.862;2023-05-10T12:56:03;8.27;;;6.05;;
52866;SDS011;38739;53.324;6.862;2023-05-10T12:58:30;10.30;;;6.55;;
52866;SDS011;38739;53.324;6.862;2023-05-10T13:00:57;9.77;;;6.70;;
52866;SDS011;38739;53.324;6.862;2023-05-10T13:03:23;9.35;;;7.57;;
52866;SDS011;38739;53.324;6.862;2023-05-10T13:05:49;11.23;;;7.47;;
52866;SDS011;38739;53.324;6.862;2023-05-10T13:08:15;10.93;;;7.40;;
52866;SDS011;38739;53.324;6.862;2023-05-10T13:10:40;9.18;;;7.38;;
52866;SDS011;38739;53.324;6.862;2023-05-10T13:13:06;9.90;;;7.85;;
52866;SDS011;38739;53.324;6.862;2023-05-10T13:15:35;12.50;;;8.60;;
52866;SDS011;38739;53.324;6.862;2023-05-10T13:18:01;10.80;;;8.95;;
52866;SDS011;38739;53.324;6.862;2023-05-10T13:20:27;12.38;;;8.90;;
52866;SDS011;38739;53.324;6.862;2023-05-10T13:22:52;12.63;;;9.05;;
52866;SDS011;38739;53.324;6.862;2023-05-10T13:25:18;13.00;;;9.70;;
52866;SDS011;38739;53.324;6.862;2023-05-10T13:27:44;13.95;;;10.15;;
52866;SDS011;38739;53.324;6.862;2023-05-10T13:30:10;13.10;;;9.98;;
52866;SDS011;38739;53.324;6.862;2023-05-10T13:32:36;11.90;;;9.77;;
52866;SDS011;38739;53.324;6.862;2023-05-10T13:35:02;13.18;;;10.50;;
52866;SDS011;38739;53.324;6.862;2023-05-10T13:37:29;12.65;;;9.25;;
52866;SDS011;38739;53.324;6.862;2023-05-10T13:39:55;11.23;;;8.85;;
52866;SDS011;38739;53.324;6.862;2023-05-10T13:42:24;9.63;;;7.85;;
52866;SDS011;38739;53.324;6.862;2023-05-10T13:44:50;9.35;;;7.15;;
52866;SDS011;38739;53.324;6.862;2023-05-10T13:47:16;8.20;;;6.35;;
52866;SDS011;38739;53.324;6.862;2023-05-10T13:49:42;10.35;;;6.80;;
52866;SDS011;38739;53.324;6.862;2023-05-10T13:52:07;7.82;;;5.82;;
52866;SDS011;38739;53.324;6.862;2023-05-10T13:54:35;7.50;;;5.55;;
52866;SDS011;38739;53.324;6.862;2023-05-10T13:57:02;7.78;;;5.45;;
52866;SDS011;38739;53.324;6.862;2023-05-10T13:59:28;6.38;;;5.10;;
52866;SDS011;38739;53.324;6.862;2023-05-10T14:01:54;6.10;;;5.10;;
52866;SDS011;38739;53.324;6.862;2023-05-10T14:04:19;7.53;;;4.80;;
52866;SDS011;38739;53.324;6.862;2023-05-10T14:06:45;5.88;;;4.68;;
52866;SDS011;38739;53.324;6.862;2023-05-10T14:09:11;4.35;;;3.90;;
52866;SDS011;38739;53.324;6.862;2023-05-10T14:11:37;5.82;;;4.30;;
52866;SDS011;38739;53.324;6.862;2023-05-10T14:14:08;4.75;;;4.00;;
52866;SDS011;38739;53.324;6.862;2023-05-10T14:16:34;5.72;;;4.47;;
52866;SDS011;38739;53.324;6.862;2023-05-10T14:19:00;4.20;;;3.70;;
52866;SDS011;38739;53.324;6.862;2023-05-10T14:21:26;4.72;;;3.75;;
52866;SDS011;38739;53.324;6.862;2023-05-10T14:23:53;5.80;;;3.40;;
52866;SDS011;38739;53.324;6.862;2023-05-10T14:26:20;5.05;;;3.63;;
52866;SDS011;38739;53.324;6.862;2023-05-10T14:28:46;5.15;;;3.20;;
52866;SDS011;38739;53.324;6.862;2023-05-10T14:31:12;4.18;;;3.55;;
52866;SDS011;38739;53.324;6.862;2023-05-10T14:33:39;5.53;;;3.78;;
52866;SDS011;38739;53.324;6.862;2023-05-10T14:36:05;5.60;;;3.95;;
52866;SDS011;38739;53.324;6.862;2023-05-10T14:38:31;6.60;;;4.30;;
52866;SDS011;38739;53.324;6.862;2023-05-10T14:40:57;7.63;;;5.40;;
52866;SDS011;38739;53.324;6.862;2023-05-10T14:43:23;7.82;;;5.93;;
52866;SDS011;38739;53.324;6.862;2023-05-10T14:45:49;8.95;;;6.38;;
52866;SDS011;38739;53.324;6.862;2023-05-10T14:48:15;9.05;;;7.15;;
52866;SDS011;38739;53.324;6.862;2023-05-10T14:50:42;8.50;;;6.43;;
52866;SDS011;38739;53.324;6.862;2023-05-10T14:53:08;9.32;;;6.72;;
52866;SDS011;38739;53.324;6.862;2023-05-10T14:55:34;8.43;;;7.32;;
52866;SDS011;38739;53.324;6.862;2023-05-10T14:58:01;8.38;;;7.05;;
52866;SDS011;38739;53.324;6.862;2023-05-10T15:00:28;9.75;;;6.43;;
52866;SDS011;38739;53.324;6.862;2023-05-10T15:02:55;9.40;;;7.95;;
52866;SDS011;38739;53.324;6.862;2023-05-10T15:05:21;11.98;;;8.23;;
52866;SDS011;38739;53.324;6.862;2023-05-10T15:07:47;10.35;;;8.20;;
52866;SDS011;38739;53.324;6.862;2023-05-10T15:10:12;9.25;;;7.95;;
52866;SDS011;38739;53.324;6.862;2023-05-10T15:12:39;12.15;;;8.40;;
52866;SDS011;38739;53.324;6.862;2023-05-10T15:15:05;10.15;;;8.15;;
52866;SDS011;38739;53.324;6.862;2023-05-10T15:17:31;12.77;;;8.73;;
52866;SDS011;38739;53.324;6.862;2023-05-10T15:19:57;12.02;;;8.77;;
52866;SDS011;38739;53.324;6.862;2023-05-10T15:22:23;12.38;;;9.23;;
52866;SDS011;38739;53.324;6.862;2023-05-10T15:24:49;9.10;;;7.20;;
52866;SDS011;38739;53.324;6.862;2023-05-10T15:27:14;9.57;;;7.05;;